createdAt,value
2018-06-03T00:00:12.165Z,69.40
2018-06-03T00:02:40.424Z,69.20
2018-06-03T00:05:08.686Z,69.70
2018-06-03T00:07:36.183Z,69.10
2018-06-03T00:10:04.457Z,68.50
2018-06-03T00:12:32.737Z,68.50
2018-06-03T00:15:00.997Z,68.70
2018-06-03T00:17:28.485Z,68.60
2018-06-03T00:19:56.765Z,69.10
2018-06-03T00:22:31.775Z,69.10
2018-06-03T00:25:00.061Z,70.10
2018-06-03T00:27:28.333Z,70.50
2018-06-03T00:29:56.589Z,71.10
2018-06-03T00:32:25.609Z,71.50
2018-06-03T00:34:53.868Z,71.80
2018-06-03T00:37:22.164Z,71.70
2018-06-03T00:39:50.434Z,72.10
2018-06-03T00:42:18.693Z,72.40
2018-06-03T00:44:46.953Z,72.60
2018-06-03T00:47:14.457Z,72.70
2018-06-03T00:49:42.727Z,73.00
2018-06-03T00:52:10.998Z,73.10
2018-06-03T00:54:39.277Z,73.20
2018-06-03T00:57:09.378Z,73.50
2018-06-03T00:59:36.883Z,74.30
2018-06-03T01:02:04.385Z,73.60
2018-06-03T01:04:32.645Z,73.80
2018-06-03T01:07:00.133Z,73.80
2018-06-03T01:09:27.626Z,73.80
2018-06-03T01:11:55.122Z,73.70
2018-06-03T01:14:22.625Z,74.10
2018-06-03T01:16:50.891Z,74.70
2018-06-03T01:19:19.150Z,74.90
2018-06-03T01:21:46.656Z,74.80
2018-06-03T01:24:14.161Z,75.00
2018-06-03T01:26:41.649Z,75.10
2018-06-03T01:29:09.909Z,74.70
2018-06-03T01:31:37.412Z,75.40
2018-06-03T01:34:04.933Z,75.60
2018-06-03T01:36:33.209Z,76.10
2018-06-03T01:39:01.473Z,76.50
2018-06-03T01:41:29.750Z,76.60
2018-06-03T01:43:58.749Z,77.00
2018-06-03T01:46:26.242Z,77.00
2018-06-03T01:48:53.750Z,77.30
2018-06-03T01:51:21.258Z,78.10
2018-06-03T01:53:48.753Z,78.60
2018-06-03T01:56:16.241Z,79.00
2018-06-03T01:58:43.737Z,79.70
2018-06-03T02:01:11.257Z,80.90
2018-06-03T02:03:38.761Z,79.90
2018-06-03T02:06:06.261Z,80.50
2018-06-03T02:08:34.522Z,80.50
2018-06-03T02:11:02.062Z,80.50
2018-06-03T02:13:29.569Z,80.40
2018-06-03T02:15:57.063Z,80.40
2018-06-03T02:18:24.566Z,80.60
2018-06-03T02:20:53.575Z,80.90
2018-06-03T02:23:21.079Z,80.90
2018-06-03T02:25:48.573Z,80.90
2018-06-03T02:28:56.821Z,81.00
2018-06-03T02:31:25.262Z,81.40
2018-06-03T02:33:53.706Z,81.50
2018-06-03T02:36:22.178Z,81.30
2018-06-03T02:38:50.622Z,81.60
2018-06-03T02:41:19.338Z,82.10
2018-06-03T02:43:47.797Z,82.50
2018-06-03T02:46:16.298Z,82.70
2018-06-03T02:48:44.778Z,82.70
2018-06-03T02:53:41.415Z,82.30
2018-06-03T02:56:09.854Z,82.00
2018-06-03T02:58:38.310Z,81.00
2018-06-03T03:01:06.766Z,80.30
2018-06-03T03:06:03.454Z,79.80
2018-06-03T03:08:31.908Z,80.00
2018-06-03T03:11:00.378Z,80.00
2018-06-03T03:13:28.857Z,80.30
2018-06-03T03:18:25.473Z,80.90
2018-06-03T03:20:53.917Z,80.80
2018-06-03T03:23:22.461Z,81.30
2018-06-03T03:25:50.901Z,82.40
2018-06-03T03:28:19.402Z,81.50
2018-06-03T03:30:47.858Z,81.40
2018-06-03T03:33:16.294Z,81.50
2018-06-03T03:35:44.749Z,81.40
2018-06-03T03:38:13.302Z,81.30
2018-06-03T03:40:41.762Z,80.80
2018-06-03T03:43:10.246Z,80.60
2018-06-03T03:45:38.678Z,80.30
2018-06-03T03:48:07.123Z,80.40
2018-06-03T03:50:35.889Z,80.70
2018-06-03T03:53:04.390Z,81.10
2018-06-03T03:55:32.865Z,81.60
2018-06-03T03:58:01.297Z,81.80
2018-06-03T04:00:29.741Z,81.70
2018-06-03T04:02:58.215Z,81.60
2018-06-03T04:05:26.698Z,81.50
2018-06-03T04:07:55.181Z,82.30
2018-06-03T04:10:23.652Z,81.50
2018-06-03T04:12:52.097Z,81.50
2018-06-03T04:15:20.525Z,81.30
2018-06-03T04:17:49.000Z,81.20
2018-06-03T04:20:17.449Z,81.10
2018-06-03T04:22:45.906Z,80.40
2018-06-03T04:25:14.352Z,79.10
2018-06-03T04:27:42.837Z,79.50
2018-06-03T04:30:11.264Z,79.30
2018-06-03T04:32:39.708Z,79.00
2018-06-03T04:35:08.153Z,78.50
2018-06-03T04:37:36.597Z,78.30
2018-06-03T04:40:05.075Z,77.60
2018-06-03T04:42:33.513Z,77.20
2018-06-03T04:45:01.966Z,77.10
2018-06-03T04:47:30.449Z,76.70
2018-06-03T04:49:58.905Z,76.80
2018-06-03T04:54:55.578Z,78.00
2018-06-03T04:57:24.082Z,77.60
2018-06-03T04:59:52.551Z,77.10
2018-06-03T05:02:21.002Z,77.00
2018-06-03T05:04:49.453Z,77.00
2018-06-03T05:07:17.917Z,76.80
2018-06-03T05:09:46.401Z,76.60
2018-06-03T05:12:14.885Z,76.40
2018-06-03T05:14:43.356Z,76.30
2018-06-03T05:17:11.795Z,76.60
2018-06-03T05:19:40.229Z,76.50
2018-06-03T05:22:08.674Z,77.30
2018-06-03T05:24:37.115Z,75.70
2018-06-03T05:27:05.608Z,75.20
2018-06-03T05:29:34.096Z,75.10
2018-06-03T05:32:02.557Z,75.40
2018-06-03T05:34:31.025Z,75.80
2018-06-03T05:36:59.486Z,76.20
2018-06-03T05:39:27.933Z,76.90
2018-06-03T05:41:56.369Z,77.50
2018-06-03T05:44:24.857Z,77.60
2018-06-03T05:46:53.310Z,77.80
2018-06-03T05:49:21.757Z,77.60
2018-06-03T05:51:50.237Z,77.70
2018-06-03T05:54:18.693Z,77.40
2018-06-03T05:56:47.139Z,77.70
2018-06-03T05:59:15.604Z,76.40
2018-06-03T06:01:44.071Z,75.90
2018-06-03T06:04:12.525Z,75.20
2018-06-03T06:06:41.093Z,75.20
2018-06-03T06:09:09.578Z,74.60
2018-06-03T06:11:38.033Z,74.80
2018-06-03T06:14:06.505Z,76.10
2018-06-03T06:16:34.982Z,76.80
2018-06-03T06:19:03.474Z,78.10
2018-06-03T06:21:31.932Z,78.80
2018-06-03T06:24:00.405Z,78.60
2018-06-03T06:26:28.879Z,78.60
2018-06-03T06:31:25.458Z,75.90
2018-06-03T06:33:53.906Z,76.00
2018-06-03T06:36:22.376Z,75.70
2018-06-03T06:38:50.818Z,75.10
2018-06-03T06:41:19.277Z,72.90
2018-06-03T06:43:47.738Z,73.10
2018-06-03T06:46:16.201Z,71.60
2018-06-03T06:48:44.661Z,71.80
2018-06-03T06:51:13.107Z,71.20
2018-06-03T06:53:41.614Z,71.00
2018-06-03T06:56:10.069Z,70.80
2018-06-03T06:58:38.539Z,70.60
2018-06-03T07:01:07.008Z,69.50
2018-06-03T07:03:35.465Z,70.00
2018-06-03T07:06:03.961Z,70.00
2018-06-03T07:08:32.419Z,70.60
2018-06-03T07:11:00.885Z,69.70
2018-06-03T07:13:29.373Z,69.30
2018-06-03T07:15:57.857Z,69.50
2018-06-03T07:18:26.362Z,69.20
2018-06-03T07:20:54.884Z,68.80
2018-06-03T07:23:23.395Z,68.40
2018-06-03T07:25:51.829Z,68.50
2018-06-03T07:28:20.289Z,68.80
2018-06-03T07:30:48.726Z,69.30
2018-06-03T07:33:17.182Z,69.90
2018-06-03T07:35:45.630Z,69.90
2018-06-03T07:38:14.098Z,69.40
2018-06-03T07:40:42.643Z,69.20
2018-06-03T07:43:11.246Z,69.30
2018-06-03T07:45:39.741Z,68.20
2018-06-03T07:48:08.186Z,69.20
2018-06-03T07:50:36.651Z,68.70
2018-06-03T07:53:05.094Z,67.30
2018-06-03T07:55:33.545Z,67.40
2018-06-03T07:58:02.001Z,68.40
2018-06-03T08:00:30.458Z,68.30
2018-06-03T08:05:27.087Z,66.10
2018-06-03T08:07:55.525Z,64.80
2018-06-03T08:10:23.999Z,63.40
2018-06-03T08:12:52.505Z,63.90
2018-06-03T08:15:20.974Z,64.60
2018-06-03T08:17:49.441Z,64.80
2018-06-03T08:20:17.910Z,64.60
2018-06-03T08:22:46.419Z,64.30
2018-06-03T08:25:14.886Z,63.60
2018-06-03T08:27:43.351Z,63.80
2018-06-03T08:30:11.840Z,63.90
2018-06-03T08:32:40.329Z,64.20
2018-06-03T08:35:08.819Z,64.00
2018-06-03T08:37:37.269Z,64.30
2018-06-03T08:40:05.738Z,65.10
2018-06-03T08:45:02.390Z,63.50
2018-06-03T08:47:30.834Z,62.20
2018-06-03T08:49:59.272Z,63.20
2018-06-03T08:52:27.721Z,63.30
2018-06-03T08:54:56.213Z,62.80
2018-06-03T08:57:24.706Z,62.90
2018-06-03T08:59:53.250Z,62.30
2018-06-03T09:02:21.685Z,61.50
2018-06-03T09:04:50.126Z,60.60
2018-06-03T09:07:18.601Z,61.90
2018-06-03T09:09:47.231Z,62.60
2018-06-03T09:12:15.710Z,61.40
2018-06-03T09:14:44.170Z,61.00
2018-06-03T09:17:12.620Z,59.80
2018-06-03T09:19:41.069Z,58.70
2018-06-03T09:22:09.525Z,58.30
2018-06-03T09:24:37.995Z,58.40
2018-06-03T09:27:06.481Z,59.30
2018-06-03T09:29:34.921Z,60.30
2018-06-03T09:32:03.374Z,61.30
2018-06-03T09:34:31.839Z,58.60
2018-06-03T09:37:00.312Z,57.50
2018-06-03T09:39:28.773Z,57.10
2018-06-03T09:41:57.260Z,58.20
2018-06-03T09:44:25.792Z,58.10
2018-06-03T09:46:54.185Z,56.90
2018-06-03T09:49:22.628Z,57.10
2018-06-03T09:51:51.094Z,55.30
2018-06-03T09:54:19.546Z,56.00
2018-06-03T09:56:48.097Z,57.80
2018-06-03T09:59:16.597Z,58.10
2018-06-03T10:01:45.095Z,58.30
2018-06-03T10:04:13.545Z,58.30
2018-06-03T10:06:42.039Z,56.20
2018-06-03T10:09:10.636Z,56.90
2018-06-03T10:11:39.121Z,55.70
2018-06-03T10:14:07.613Z,55.50
2018-06-03T10:16:36.066Z,56.10
2018-06-03T10:19:04.522Z,54.50
2018-06-03T10:21:33.280Z,54.80
2018-06-03T10:24:01.746Z,54.30
2018-06-03T10:26:30.229Z,53.70
2018-06-03T10:28:58.671Z,52.50
2018-06-03T10:31:28.405Z,53.50
2018-06-03T10:36:25.025Z,53.70
2018-06-03T10:38:53.482Z,53.00
2018-06-03T10:41:22.018Z,53.40
2018-06-03T10:43:50.545Z,52.50
2018-06-03T10:46:18.957Z,52.70
2018-06-03T10:48:47.390Z,53.10
2018-06-03T10:51:15.829Z,51.90
2018-06-03T10:53:44.315Z,49.70
2018-06-03T10:56:12.769Z,49.00
2018-06-03T10:58:41.614Z,48.10
2018-06-03T11:01:10.094Z,47.70
2018-06-03T11:03:38.658Z,48.10
2018-06-03T11:06:07.246Z,49.20
2018-06-03T11:08:35.798Z,50.10
2018-06-03T11:11:04.297Z,51.30
2018-06-03T11:13:32.812Z,53.50
2018-06-03T11:16:01.276Z,53.30
2018-06-03T11:18:29.725Z,51.20
2018-06-03T11:25:35.417Z,52.10
2018-06-03T11:28:03.965Z,48.70
2018-06-03T11:30:32.413Z,50.30
2018-06-03T11:33:00.902Z,50.30
2018-06-03T11:35:29.365Z,50.90
2018-06-03T11:40:25.958Z,49.10
2018-06-03T11:42:54.473Z,47.40
2018-06-03T11:45:22.970Z,48.30
2018-06-03T11:47:51.433Z,48.00
2018-06-03T11:50:20.242Z,48.60
2018-06-03T11:52:48.721Z,48.80
2018-06-03T11:55:17.186Z,48.00
2018-06-03T11:58:55.737Z,47.10
2018-06-03T12:01:25.181Z,47.10
2018-06-03T12:03:53.662Z,47.50
2018-06-03T12:06:22.125Z,45.80
2018-06-03T12:08:50.588Z,47.30
2018-06-03T12:11:19.067Z,48.00
2018-06-03T12:18:43.823Z,45.10
2018-06-03T12:21:12.935Z,43.50
2018-06-03T12:23:41.400Z,44.40
2018-06-03T12:26:09.890Z,44.10
2018-06-03T12:28:38.406Z,43.70
2018-06-03T12:31:06.794Z,43.70
2018-06-03T12:33:35.241Z,43.20
2018-06-03T12:36:03.756Z,43.10
2018-06-03T12:38:32.202Z,44.50
2018-06-03T12:41:00.637Z,45.60
2018-06-03T12:43:29.097Z,41.80
2018-06-03T12:45:57.566Z,43.00
2018-06-03T12:48:26.022Z,41.90
2018-06-03T12:50:54.541Z,44.10
2018-06-03T12:53:23.015Z,43.70
2018-06-03T12:55:51.611Z,44.60
2018-06-03T12:58:20.190Z,43.20
2018-06-03T13:00:48.677Z,43.80
2018-06-03T13:03:17.123Z,43.50
2018-06-03T13:05:45.637Z,43.90
2018-06-03T13:08:14.090Z,44.60
2018-06-03T13:10:42.544Z,45.20
2018-06-03T13:13:10.991Z,45.80
2018-06-03T13:15:39.441Z,46.60
2018-06-03T13:18:07.916Z,48.20
2018-06-03T13:20:36.393Z,48.30
2018-06-03T13:23:04.859Z,47.60
2018-06-03T13:25:33.318Z,47.20
2018-06-03T13:28:01.811Z,46.60
2018-06-03T13:30:30.281Z,46.30
2018-06-03T13:32:58.754Z,46.30
2018-06-03T13:35:27.346Z,46.30
2018-06-03T13:37:55.805Z,47.10
2018-06-03T13:40:24.261Z,47.70
2018-06-03T13:42:52.750Z,46.80
2018-06-03T13:45:21.302Z,45.10
2018-06-03T13:47:49.829Z,43.20
2018-06-03T13:50:18.282Z,42.00
2018-06-03T13:52:46.726Z,41.90
2018-06-03T13:55:15.226Z,41.70
2018-06-03T13:57:43.710Z,39.90
2018-06-03T14:00:12.167Z,40.60
2018-06-03T14:02:40.644Z,40.50
2018-06-03T14:05:09.175Z,38.20
2018-06-03T14:07:37.643Z,38.50
2018-06-03T14:10:06.161Z,37.90
2018-06-03T14:12:34.645Z,38.30
2018-06-03T14:15:03.170Z,39.90
2018-06-03T14:17:31.652Z,40.30
2018-06-03T14:20:00.125Z,41.20
2018-06-03T14:22:28.641Z,41.60
2018-06-03T14:24:57.099Z,41.40
2018-06-03T14:27:25.557Z,41.50
2018-06-03T14:29:54.065Z,41.60
2018-06-03T14:32:22.497Z,42.60
2018-06-03T14:34:50.977Z,43.40
2018-06-03T14:37:19.535Z,43.90
2018-06-03T14:39:47.985Z,44.20
2018-06-03T14:42:16.457Z,45.00
2018-06-03T14:44:44.922Z,44.10
2018-06-03T14:47:13.380Z,44.50
2018-06-03T14:52:10.073Z,44.80
2018-06-03T14:54:38.532Z,44.20
2018-06-03T14:57:07.018Z,44.10
2018-06-03T14:59:35.453Z,44.60
2018-06-03T15:02:03.973Z,45.20
2018-06-03T15:04:32.413Z,44.90
2018-06-03T15:07:00.894Z,45.30
2018-06-03T15:09:29.378Z,46.10
2018-06-03T15:11:57.854Z,45.30
2018-06-03T15:14:26.333Z,45.40
2018-06-03T15:16:54.793Z,45.10
2018-06-03T15:19:23.270Z,46.20
2018-06-03T15:21:51.767Z,45.40
2018-06-03T15:24:20.221Z,47.10
2018-06-03T15:26:48.714Z,47.50
2018-06-03T15:29:17.184Z,47.20
2018-06-03T15:31:45.645Z,46.90
2018-06-03T15:36:42.282Z,46.60
2018-06-03T15:39:10.765Z,47.50
2018-06-03T15:41:39.213Z,46.50
2018-06-03T15:44:07.718Z,47.10
2018-06-03T15:46:36.166Z,45.90
2018-06-03T15:49:04.722Z,44.60
2018-06-03T15:51:33.251Z,44.80
2018-06-03T15:54:01.654Z,45.30
2018-06-03T15:56:30.136Z,45.40
2018-06-03T15:58:58.594Z,45.50
2018-06-03T16:01:27.072Z,46.50
2018-06-03T16:03:55.545Z,46.30
2018-06-03T16:06:24.022Z,44.80
2018-06-03T16:08:52.465Z,44.80
2018-06-03T16:11:20.949Z,45.00
2018-06-03T16:13:49.448Z,46.30
2018-06-03T16:16:17.970Z,44.30
2018-06-03T16:18:46.434Z,43.70
2018-06-03T16:21:14.894Z,43.30
2018-06-03T16:23:43.422Z,42.30
2018-06-03T16:26:11.882Z,42.40
2018-06-03T16:28:40.378Z,43.50
2018-06-03T16:31:08.831Z,44.30
2018-06-03T16:33:37.317Z,44.50
2018-06-03T16:36:05.797Z,44.30
2018-06-03T16:38:34.265Z,45.20
2018-06-03T16:41:02.725Z,45.50
2018-06-03T16:43:31.197Z,45.50
2018-06-03T16:45:59.618Z,45.60
2018-06-03T16:48:28.061Z,50.40
2018-06-03T16:50:56.514Z,46.80
2018-06-03T16:53:24.998Z,40.00
2018-06-03T16:55:53.477Z,33.10
2018-06-03T16:58:21.936Z,28.70
2018-06-03T17:00:50.940Z,26.90
2018-06-03T17:03:19.397Z,26.30
2018-06-03T17:05:47.853Z,23.60
2018-06-03T17:08:16.310Z,23.20
2018-06-03T17:10:44.763Z,22.70
2018-06-03T17:13:13.255Z,24.50
2018-06-03T17:15:41.698Z,25.80
2018-06-03T17:18:10.142Z,27.60
2018-06-03T17:20:38.609Z,29.10
2018-06-03T17:23:07.078Z,30.20
2018-06-03T17:25:35.544Z,33.10
2018-06-03T17:28:04.003Z,34.90
2018-06-03T17:30:32.466Z,39.40
2018-06-03T17:33:00.989Z,40.00
2018-06-03T17:35:29.466Z,33.90
2018-06-03T17:37:57.919Z,26.80
2018-06-03T17:40:26.443Z,28.00
2018-06-03T17:42:54.875Z,24.50
2018-06-03T17:45:23.330Z,21.10
2018-06-03T17:47:51.805Z,20.80
2018-06-03T17:50:20.273Z,17.90
2018-06-03T17:52:48.757Z,18.00
2018-06-03T17:55:17.249Z,19.30
2018-06-03T18:00:13.869Z,23.50
2018-06-03T18:02:42.357Z,25.20
2018-06-03T18:05:10.798Z,27.70
2018-06-03T18:07:39.266Z,29.30
2018-06-03T18:10:07.729Z,31.60
2018-06-03T18:12:36.178Z,33.80
2018-06-03T18:15:04.676Z,35.70
2018-06-03T18:17:33.137Z,36.30
2018-06-03T18:20:01.580Z,37.60
2018-06-03T18:22:30.062Z,39.20
2018-06-03T18:24:58.526Z,40.90
2018-06-03T18:27:26.994Z,42.00
2018-06-03T18:29:55.465Z,42.90
2018-06-03T18:32:23.951Z,43.50
2018-06-03T18:34:52.477Z,44.20
2018-06-03T18:37:20.997Z,44.50
2018-06-03T18:39:49.442Z,45.10
2018-06-03T18:42:17.904Z,46.30
2018-06-03T18:44:46.349Z,47.50
2018-06-03T18:47:14.814Z,47.90
2018-06-03T18:49:43.252Z,48.50
2018-06-03T18:52:11.693Z,49.00
2018-06-03T18:54:40.193Z,50.30
2018-06-03T18:57:08.653Z,51.10
2018-06-03T18:59:37.110Z,51.60
2018-06-03T19:02:05.705Z,52.10
2018-06-03T19:04:34.177Z,52.40
2018-06-03T19:07:02.657Z,52.70
2018-06-03T19:09:31.105Z,53.00
2018-06-03T19:11:59.605Z,53.40
2018-06-03T19:14:28.077Z,53.80
2018-06-03T19:16:56.606Z,54.40
2018-06-03T19:19:25.162Z,54.80
2018-06-03T19:21:53.569Z,54.50
2018-06-03T19:24:22.021Z,55.30
2018-06-03T19:26:50.489Z,55.60
2018-06-03T19:29:18.929Z,55.70
2018-06-03T19:31:47.380Z,55.90
2018-06-03T19:34:15.842Z,55.90
2018-06-03T19:36:44.437Z,56.00
2018-06-03T19:39:12.866Z,56.10
2018-06-03T19:41:41.321Z,56.30
2018-06-03T19:44:09.783Z,56.60
2018-06-03T19:46:38.334Z,56.80
2018-06-03T19:49:06.794Z,57.10
2018-06-03T19:51:35.282Z,57.50
2018-06-03T19:54:03.778Z,57.80
2018-06-03T19:56:32.230Z,58.00
2018-06-03T19:59:00.665Z,58.20
2018-06-03T20:10:44.861Z,59.00
2018-06-03T20:13:13.326Z,59.40
2018-06-03T20:15:41.841Z,59.70
2018-06-03T20:18:10.311Z,59.90
2018-06-03T20:20:38.755Z,60.10
2018-06-03T20:24:10.454Z,60.20
2018-06-03T20:26:38.925Z,60.20
2018-06-03T20:29:07.442Z,60.60
2018-06-03T20:31:35.949Z,61.00
2018-06-03T20:34:04.446Z,61.10
2018-06-03T20:36:32.921Z,61.10
2018-06-03T20:39:01.370Z,61.00
2018-06-03T20:43:57.955Z,61.80
2018-06-03T20:46:26.397Z,61.20
2018-06-03T20:48:54.881Z,61.10
2018-06-03T20:51:23.322Z,61.00
2018-06-03T20:53:51.849Z,61.10
2018-06-03T20:56:20.281Z,61.30
2018-06-03T20:58:48.764Z,61.60
2018-06-03T21:01:17.222Z,61.90
2018-06-03T21:03:45.653Z,62.30
2018-06-03T21:06:14.101Z,62.80
2018-06-03T21:08:42.558Z,62.90
2018-06-03T21:11:11.035Z,63.10
2018-06-03T21:13:39.550Z,63.70
2018-06-03T21:16:08.051Z,64.30
2018-06-03T21:18:36.509Z,65.00
2018-06-03T21:21:05.058Z,65.50
2018-06-03T21:26:01.691Z,66.00
2018-06-03T21:28:30.125Z,66.30
2018-06-03T21:30:58.610Z,66.70
2018-06-03T21:33:27.076Z,66.80
2018-06-03T21:35:55.526Z,66.90
2018-06-03T21:38:23.987Z,67.20
2018-06-03T21:40:52.437Z,67.50
2018-06-03T21:43:21.090Z,67.60
2018-06-03T21:45:49.601Z,67.80
2018-06-03T21:48:18.042Z,68.20
2018-06-03T21:50:46.521Z,68.70
2018-06-03T21:53:14.982Z,69.10
2018-06-03T21:55:43.442Z,69.20
2018-06-03T21:58:12.005Z,69.70
2018-06-03T22:00:40.466Z,69.80
2018-06-03T22:03:08.912Z,70.30
2018-06-03T22:05:37.369Z,70.80
2018-06-03T22:08:05.969Z,70.70
2018-06-03T22:10:34.429Z,70.70
2018-06-03T22:13:02.886Z,70.90
2018-06-03T22:15:31.393Z,71.10
2018-06-03T22:18:00.133Z,71.30
2018-06-03T22:22:56.819Z,71.40
2018-06-03T22:25:25.293Z,71.70
2018-06-03T22:27:53.730Z,72.10
2018-06-03T22:30:22.181Z,72.50
2018-06-03T22:32:50.837Z,73.10
2018-06-03T22:35:19.397Z,73.40
2018-06-03T22:40:15.970Z,74.20
2018-06-03T22:42:44.434Z,74.40
2018-06-03T22:45:12.889Z,75.40
2018-06-03T22:47:41.349Z,75.50
2018-06-03T22:50:09.816Z,75.10
2018-06-03T22:52:38.294Z,75.10
2018-06-03T22:55:06.745Z,75.00
2018-06-03T22:57:46.885Z,75.10
2018-06-03T23:00:23.106Z,75.10
2018-06-03T23:02:57.763Z,75.20
2018-06-03T23:05:26.251Z,76.50
2018-06-03T23:07:54.934Z,76.00
2018-06-03T23:15:19.759Z,76.30
2018-06-03T23:17:48.205Z,77.20
2018-06-03T23:20:16.642Z,76.70
2018-06-03T23:22:45.106Z,76.80
2018-06-03T23:25:13.557Z,77.00
2018-06-03T23:27:42.022Z,77.50
2018-06-03T23:30:10.494Z,77.60
2018-06-03T23:32:38.950Z,77.70
2018-06-03T23:35:07.447Z,78.00
2018-06-03T23:37:35.885Z,78.30
2018-06-03T23:40:04.799Z,78.60
2018-06-03T23:42:33.353Z,78.90
2018-06-03T23:45:01.818Z,79.10
2018-06-03T23:47:30.269Z,80.40
2018-06-03T23:53:30.763Z,79.20
2018-06-03T23:55:59.217Z,79.10
2018-06-03T23:58:27.677Z,79.30
